Weather at Kilkis Airfield [CLOSED]

Public forecast

Using degrees Celsius for public forecast. Weather courtesy of forecast.io.

Closest aviation weather report (METAR) to Kilkis Airfield

Closest report is Thessaloniki Macedonia International Airport, 28.0 nm (51.9 km) S.

2024/05/29 20:50 (retrieved 16 minutes ago)

LGTS 292050Z 12008KT 9999 FEW030 20/14 Q1010 NOSIG

Closest aviation forecast (TAF) to Kilkis Airfield

Closest forecast is Thessaloniki Macedonia International Airport, 28.0 nm (51.9 km) S.

2024/05/29 17:00 Ammendment (retrieved 4 hours ago)

TAF AMD LGTS 291751Z 2917/3018 VRB03KT 9999 SCT030 PROB40 TEMPO 2918/2920 5000 TSRA FEW018CB BKN025 BECMG 2920/2922 FEW030 PROB40 TEMPO 3010/3016 4000 TSRA FEW018CB SCT025 BECMG 3010/3012 17013KT